Time;durP1;ratioP1;P1;durP2;ratioP2;P2;SDS_P1;SDS_P2;PMS_P1;PMS_P2;Temp;Humidity;BMP_temperature;BMP_pressure;BME280_temperature;BME280_humidity;BME280_pressure;Samples;Min_cycle;Max_cycle;Signal;HPM_P1;HPM_P2
2022/06/06 00:02:25;;;;;;;1.40;1.40;;;;;;;;;;5085378;28;20318;-63
2022/06/06 00:04:52;;;;;;;1.30;1.30;;;;;;;;;;5079227;28;20712;-63
2022/06/06 00:07:19;;;;;;;1.30;1.20;;;;;;;;;;5064100;28;20215;-64
2022/06/06 00:09:46;;;;;;;2.40;1.40;;;;;;;;;;5072072;28;20206;-63
2022/06/06 00:12:14;;;;;;;1.40;1.38;;;;;;;;;;5085102;28;20217;-63
2022/06/06 00:14:42;;;;;;;1.83;1.73;;;;;;;;;;5083723;28;20206;-63
2022/06/06 00:17:09;;;;;;;1.60;1.50;;;;;;;;;;5085284;28;20222;-63
2022/06/06 00:19:37;;;;;;;1.40;1.40;;;;;;;;;;5083469;28;20233;-63
2022/06/06 00:22:04;;;;;;;1.33;1.33;;;;;;;;;;5084828;28;20275;-63
2022/06/06 00:24:32;;;;;;;1.30;1.30;;;;;;;;;;5084798;28;20295;-63
2022/06/06 00:26:59;;;;;;;1.40;1.40;;;;;;;;;;5084596;28;20334;-63
2022/06/06 00:29:27;;;;;;;1.40;1.40;;;;;;;;;;5084524;28;20206;-63
2022/06/06 00:34:52;;;;;;;1.67;1.58;;;;;;;;;;5084698;28;20218;-63
2022/06/06 00:37:21;;;;;;;1.10;1.10;;;;;;;;;;5083745;28;20963;-63
2022/06/06 00:39:48;;;;;;;1.60;1.42;;;;;;;;;;5084512;28;20206;-63
2022/06/06 00:42:19;;;;;;;1.55;1.45;;;;;;;;;;5078996;28;20249;-63
2022/06/06 00:44:46;;;;;;;1.67;1.63;;;;;;;;;;5072290;28;20222;-63
2022/06/06 00:47:21;;;;;;;2.17;1.60;;;;;;;;;;5081637;28;20221;-63
2022/06/06 00:49:51;;;;;;;1.65;1.55;;;;;;;;;;5083938;28;20271;-63
2022/06/06 00:52:20;;;;;;;2.08;1.67;;;;;;;;;;5084464;28;20217;-62
2022/06/06 00:54:48;;;;;;;1.77;1.77;;;;;;;;;;5084264;28;20206;-63
2022/06/06 00:57:18;;;;;;;1.60;1.60;;;;;;;;;;5079053;28;20233;-63
2022/06/06 00:59:46;;;;;;;1.40;1.40;;;;;;;;;;5083619;28;20233;-63
2022/06/06 01:02:14;;;;;;;2.30;2.20;;;;;;;;;;5084311;28;20210;-63
2022/06/06 01:04:42;;;;;;;2.78;1.60;;;;;;;;;;5083908;28;20234;-63
2022/06/06 01:07:11;;;;;;;1.90;1.80;;;;;;;;;;5083372;28;20210;-63
2022/06/06 01:09:38;;;;;;;7.32;2.03;;;;;;;;;;5084525;28;20206;-63
2022/06/06 01:12:08;;;;;;;1.52;1.52;;;;;;;;;;5083018;28;20206;-63
2022/06/06 01:14:36;;;;;;;3.47;1.83;;;;;;;;;;5084410;28;20671;-63
2022/06/06 01:17:05;;;;;;;1.85;1.83;;;;;;;;;;5078242;28;20210;-63
2022/06/06 01:19:41;;;;;;;2.15;2.05;;;;;;;;;;5063780;28;20235;-63
2022/06/06 01:22:20;;;;;;;2.50;2.40;;;;;;;;;;5069887;28;20206;-63
2022/06/06 01:24:57;;;;;;;2.20;2.10;;;;;;;;;;5083686;28;20233;-63
2022/06/06 01:27:31;;;;;;;2.88;2.10;;;;;;;;;;5078127;28;20205;-63
2022/06/06 01:30:02;;;;;;;1.95;1.85;;;;;;;;;;5063696;28;20218;-63
2022/06/06 01:32:29;;;;;;;2.03;1.92;;;;;;;;;;5071833;28;20564;-63
2022/06/06 01:34:56;;;;;;;3.65;2.20;;;;;;;;;;5078275;28;20207;-63
2022/06/06 01:37:26;;;;;;;2.33;2.13;;;;;;;;;;5070670;28;20230;-63
2022/06/06 01:39:53;;;;;;;2.50;1.80;;;;;;;;;;5084462;28;20206;-63
2022/06/06 01:42:23;;;;;;;2.25;2.15;;;;;;;;;;5087279;28;20226;-63
2022/06/06 01:44:53;;;;;;;2.20;2.08;;;;;;;;;;5086391;28;20230;-63
2022/06/06 01:47:23;;;;;;;2.50;2.40;;;;;;;;;;5087726;28;20289;-63
2022/06/06 01:49:51;;;;;;;2.20;2.13;;;;;;;;;;5087311;28;20210;-63
2022/06/06 01:52:27;;;;;;;2.47;2.40;;;;;;;;;;5087805;28;20618;-63
2022/06/06 01:54:54;;;;;;;2.45;2.10;;;;;;;;;;5087143;28;20229;-65
2022/06/06 01:57:22;;;;;;;11.70;2.70;;;;;;;;;;5086708;28;20202;-64
2022/06/06 01:59:49;;;;;;;2.70;2.60;;;;;;;;;;5086396;28;20210;-64
2022/06/06 02:02:17;;;;;;;2.30;2.28;;;;;;;;;;5085362;28;20210;-63
2022/06/06 02:04:45;;;;;;;3.50;2.20;;;;;;;;;;5086958;28;20218;-63
2022/06/06 02:07:12;;;;;;;2.47;2.28;;;;;;;;;;5086341;28;20292;-63
2022/06/06 02:09:39;;;;;;;2.70;2.50;;;;;;;;;;5086175;28;20206;-63
2022/06/06 02:12:09;;;;;;;2.53;2.33;;;;;;;;;;5082453;28;20214;-63
2022/06/06 02:14:37;;;;;;;2.70;2.60;;;;;;;;;;5085873;28;20190;-63
2022/06/06 02:17:06;;;;;;;2.80;2.70;;;;;;;;;;5086179;28;20711;-64
2022/06/06 02:19:33;;;;;;;2.80;2.70;;;;;;;;;;5087173;28;20412;-64
2022/06/06 02:22:01;;;;;;;2.95;2.75;;;;;;;;;;5087994;28;20261;-63
2022/06/06 02:24:28;;;;;;;2.70;2.50;;;;;;;;;;5088163;28;20746;-62
2022/06/06 02:26:56;;;;;;;2.70;2.60;;;;;;;;;;5087571;28;20206;-62
2022/06/06 02:29:23;;;;;;;3.17;2.95;;;;;;;;;;5089115;28;20225;-64
2022/06/06 02:31:51;;;;;;;3.47;3.28;;;;;;;;;;5091562;28;20195;-64
2022/06/06 02:34:18;;;;;;;2.80;2.53;;;;;;;;;;5091813;28;20213;-63
2022/06/06 02:36:45;;;;;;;3.38;3.28;;;;;;;;;;5091356;28;20347;-63
2022/06/06 02:39:14;;;;;;;3.10;2.53;;;;;;;;;;5075805;28;20215;-63
2022/06/06 02:41:41;;;;;;;6.60;3.45;;;;;;;;;;5087800;28;21961;-63
2022/06/06 02:44:09;;;;;;;3.28;3.05;;;;;;;;;;5076961;28;20274;-63
2022/06/06 02:46:36;;;;;;;3.00;2.90;;;;;;;;;;5086627;28;20240;-63
2022/06/06 02:49:03;;;;;;;2.80;2.70;;;;;;;;;;5090858;28;20214;-63
2022/06/06 02:51:30;;;;;;;2.83;2.72;;;;;;;;;;5091559;28;20215;-62
2022/06/06 02:53:57;;;;;;;3.47;3.28;;;;;;;;;;5091391;28;20668;-62
2022/06/06 02:56:26;;;;;;;3.25;3.03;;;;;;;;;;5091496;28;20275;-63
2022/06/06 02:58:54;;;;;;;3.10;2.90;;;;;;;;;;5089423;28;20217;-62
2022/06/06 03:01:21;;;;;;;3.35;3.25;;;;;;;;;;5091309;28;20202;-63
2022/06/06 03:03:48;;;;;;;3.75;3.47;;;;;;;;;;5090251;28;20264;-63
2022/06/06 03:06:25;;;;;;;3.15;3.03;;;;;;;;;;5091075;28;20206;-63
2022/06/06 03:08:59;;;;;;;3.08;2.92;;;;;;;;;;5067616;28;20218;-63
2022/06/06 03:11:33;;;;;;;3.38;3.28;;;;;;;;;;5088194;28;20194;-62
2022/06/06 03:14:10;;;;;;;3.83;3.53;;;;;;;;;;5091362;28;20205;-64
2022/06/06 03:22:24;;;;;;;3.15;3.00;;;;;;;;;;5087952;28;20622;-64
2022/06/06 03:24:57;;;;;;;3.53;3.28;;;;;;;;;;5090758;28;20276;-64
2022/06/06 03:27:33;;;;;;;3.42;3.22;;;;;;;;;;5090053;28;20289;-64
2022/06/06 03:30:03;;;;;;;3.63;3.20;;;;;;;;;;5082631;28;20229;-64
2022/06/06 03:32:38;;;;;;;3.30;3.13;;;;;;;;;;5090445;28;20247;-64
2022/06/06 03:35:09;;;;;;;3.55;3.40;;;;;;;;;;5090720;28;20206;-64
2022/06/06 03:37:39;;;;;;;3.78;3.42;;;;;;;;;;5090253;28;20309;-64
2022/06/06 03:40:12;;;;;;;3.22;3.03;;;;;;;;;;5090387;28;20457;-64
2022/06/06 03:42:45;;;;;;;3.72;3.53;;;;;;;;;;5090240;28;20728;-64
2022/06/06 03:45:17;;;;;;;3.47;3.28;;;;;;;;;;5090646;28;20824;-64
2022/06/06 03:47:50;;;;;;;3.50;3.30;;;;;;;;;;5090277;28;20202;-64
2022/06/06 03:50:26;;;;;;;4.45;4.15;;;;;;;;;;5090251;28;20259;-64
2022/06/06 03:52:57;;;;;;;3.80;3.50;;;;;;;;;;5089918;28;20280;-64
2022/06/06 03:55:28;;;;;;;3.60;3.40;;;;;;;;;;5090326;28;20206;-64
2022/06/06 03:57:57;;;;;;;4.65;4.00;;;;;;;;;;5090236;28;20302;-64
2022/06/06 04:00:25;;;;;;;4.20;3.90;;;;;;;;;;5089674;28;20202;-64
2022/06/06 04:02:53;;;;;;;3.67;3.47;;;;;;;;;;5089888;28;20202;-63
2022/06/06 04:05:22;;;;;;;5.03;4.25;;;;;;;;;;5089755;28;20230;-62
2022/06/06 04:07:49;;;;;;;4.82;4.47;;;;;;;;;;5089363;28;20202;-62
2022/06/06 04:10:17;;;;;;;7.18;4.75;;;;;;;;;;5089853;28;20210;-63
2022/06/06 04:12:51;;;;;;;4.57;4.03;;;;;;;;;;5089983;28;20210;-62
2022/06/06 04:15:25;;;;;;;7.03;3.80;;;;;;;;;;5089850;28;20201;-62
2022/06/06 04:17:57;;;;;;;3.88;3.58;;;;;;;;;;5089199;28;20206;-62
2022/06/06 04:20:25;;;;;;;5.60;4.55;;;;;;;;;;5089953;28;20221;-63
2022/06/06 04:23:07;;;;;;;5.93;4.43;;;;;;;;;;5088972;28;20210;-62
2022/06/06 04:25:41;;;;;;;4.95;4.55;;;;;;;;;;5089818;28;20890;-64
2022/06/06 04:28:11;;;;;;;4.53;4.10;;;;;;;;;;5088773;28;20302;-63
2022/06/06 04:30:43;;;;;;;4.60;4.30;;;;;;;;;;5089482;28;20213;-64
2022/06/06 04:33:16;;;;;;;5.68;4.13;;;;;;;;;;5088096;28;20226;-62
2022/06/06 04:35:48;;;;;;;5.00;4.60;;;;;;;;;;5089552;28;20222;-62
2022/06/06 04:38:20;;;;;;;5.68;3.85;;;;;;;;;;5088772;28;20701;-62
2022/06/06 04:40:49;;;;;;;4.82;4.53;;;;;;;;;;5089455;28;20207;-62
2022/06/06 04:43:20;;;;;;;4.30;3.90;;;;;;;;;;5088261;28;20234;-63
2022/06/06 04:45:53;;;;;;;4.85;4.32;;;;;;;;;;5089463;28;20230;-63
2022/06/06 04:48:21;;;;;;;4.75;4.40;;;;;;;;;;5088831;28;20382;-63
2022/06/06 04:50:48;;;;;;;4.43;4.03;;;;;;;;;;5089123;28;20709;-63
2022/06/06 04:53:17;;;;;;;5.00;4.57;;;;;;;;;;5088035;28;20214;-63
2022/06/06 04:55:46;;;;;;;4.85;4.45;;;;;;;;;;5089278;28;20206;-63
2022/06/06 04:58:13;;;;;;;4.88;4.47;;;;;;;;;;5088908;28;20225;-63
2022/06/06 05:00:42;;;;;;;5.65;4.60;;;;;;;;;;5088896;28;20221;-62
2022/06/06 05:03:10;;;;;;;9.05;4.60;;;;;;;;;;5088427;28;20203;-63
2022/06/06 05:05:50;;;;;;;4.15;3.90;;;;;;;;;;5088478;28;20230;-63
2022/06/06 05:08:23;;;;;;;5.25;4.75;;;;;;;;;;5088833;28;20297;-63
2022/06/06 05:10:55;;;;;;;4.63;4.28;;;;;;;;;;5088424;28;20202;-63
2022/06/06 05:13:43;;;;;;;4.20;3.90;;;;;;;;;;5088436;28;20210;-63
2022/06/06 05:16:16;;;;;;;5.40;4.78;;;;;;;;;;5088893;28;20206;-63
2022/06/06 05:18:55;;;;;;;4.40;4.18;;;;;;;;;;5088496;28;20878;-63
2022/06/06 05:21:30;;;;;;;4.88;4.55;;;;;;;;;;5081899;28;20206;-62
2022/06/06 05:24:05;;;;;;;4.82;4.30;;;;;;;;;;5087660;28;20212;-62
2022/06/06 05:26:42;;;;;;;6.72;4.15;;;;;;;;;;5088933;28;20261;-62
2022/06/06 05:29:28;;;;;;;5.03;4.57;;;;;;;;;;5088011;28;20688;-61
2022/06/06 05:32:05;;;;;;;4.15;3.95;;;;;;;;;;5088431;28;20217;-62
2022/06/06 05:34:38;;;;;;;5.32;4.32;;;;;;;;;;5087364;28;20437;-62
2022/06/06 05:37:15;;;;;;;5.45;4.97;;;;;;;;;;5088172;28;20780;-62
2022/06/06 05:40:01;;;;;;;6.25;4.78;;;;;;;;;;5088462;28;20212;-62
2022/06/06 05:42:33;;;;;;;4.82;4.53;;;;;;;;;;5087628;28;20241;-63
2022/06/06 05:45:04;;;;;;;5.13;4.72;;;;;;;;;;5087776;28;20713;-62
2022/06/06 05:47:36;;;;;;;5.25;4.85;;;;;;;;;;5088297;28;20672;-62
2022/06/06 05:50:20;;;;;;;5.47;5.07;;;;;;;;;;5087431;28;20288;-62
2022/06/06 05:52:54;;;;;;;5.40;5.00;;;;;;;;;;5088438;28;20736;-62
2022/06/06 05:55:33;;;;;;;6.78;4.53;;;;;;;;;;5087106;28;20289;-63
2022/06/06 05:58:08;;;;;;;5.15;4.65;;;;;;;;;;5088227;28;20217;-62
2022/06/06 06:00:43;;;;;;;5.90;5.32;;;;;;;;;;5087295;28;20205;-63
2022/06/06 06:03:34;;;;;;;5.07;4.75;;;;;;;;;;5087849;28;20288;-62
2022/06/06 06:06:06;;;;;;;5.47;5.05;;;;;;;;;;5075274;28;20245;-63
2022/06/06 06:08:43;;;;;;;5.60;5.10;;;;;;;;;;5090333;28;20694;-63
2022/06/06 06:11:17;;;;;;;5.60;5.10;;;;;;;;;;5091989;28;20206;-61
2022/06/06 06:13:49;;;;;;;6.10;5.50;;;;;;;;;;5092209;28;20297;-61
2022/06/06 06:16:17;;;;;;;5.35;4.65;;;;;;;;;;5088422;28;20202;-62
2022/06/06 06:18:47;;;;;;;5.05;4.72;;;;;;;;;;5092010;28;20679;-62
2022/06/06 06:21:16;;;;;;;4.90;4.50;;;;;;;;;;5092208;28;20214;-62
2022/06/06 06:23:48;;;;;;;4.20;4.00;;;;;;;;;;5092346;28;20238;-63
2022/06/06 06:26:15;;;;;;;5.45;4.68;;;;;;;;;;5091328;28;20223;-62
2022/06/06 06:28:42;;;;;;;4.85;4.38;;;;;;;;;;5091908;28;20237;-62
2022/06/06 06:31:17;;;;;;;4.40;4.10;;;;;;;;;;5091574;28;20209;-62
2022/06/06 06:33:49;;;;;;;6.55;4.07;;;;;;;;;;5091984;28;20292;-62
2022/06/06 06:36:30;;;;;;;4.43;4.07;;;;;;;;;;5091010;28;20242;-62
2022/06/06 06:39:10;;;;;;;3.47;2.95;;;;;;;;;;5092002;28;20767;-62
2022/06/06 06:41:42;;;;;;;2.78;2.67;;;;;;;;;;5071791;28;20264;-62
2022/06/06 06:44:10;;;;;;;3.33;2.72;;;;;;;;;;5073079;28;20246;-62
2022/06/06 06:46:40;;;;;;;2.72;2.63;;;;;;;;;;5082592;28;20272;-62
2022/06/06 06:49:12;;;;;;;3.17;2.97;;;;;;;;;;5071422;28;20565;-63
2022/06/06 06:51:45;;;;;;;4.95;3.03;;;;;;;;;;5071550;28;20214;-61
2022/06/06 06:54:23;;;;;;;2.83;2.72;;;;;;;;;;5083602;28;20214;-62
2022/06/06 06:56:57;;;;;;;3.00;2.90;;;;;;;;;;5091193;28;20198;-62
2022/06/06 06:59:30;;;;;;;3.45;3.25;;;;;;;;;;5091433;28;20591;-62
2022/06/06 07:10:33;;;;;;;3.25;3.08;;;;;;;;;;5089734;28;20343;-62
2022/06/06 07:13:11;;;;;;;3.30;3.10;;;;;;;;;;5090463;28;20220;-61
2022/06/06 07:15:42;;;;;;;2.65;2.58;;;;;;;;;;5089502;28;20206;-61
2022/06/06 07:18:11;;;;;;;3.38;3.17;;;;;;;;;;5089733;28;20293;-61
2022/06/06 07:20:41;;;;;;;8.75;4.22;;;;;;;;;;5089456;28;20198;-61
2022/06/06 07:23:11;;;;;;;3.70;3.50;;;;;;;;;;5090093;28;20210;-61
2022/06/06 07:25:39;;;;;;;3.00;2.80;;;;;;;;;;5089679;28;20291;-59
2022/06/06 07:28:08;;;;;;;3.53;3.33;;;;;;;;;;5085871;28;20214;-60
2022/06/06 07:30:37;;;;;;;3.20;3.00;;;;;;;;;;5089741;28;20206;-60
2022/06/06 07:33:10;;;;;;;3.10;2.90;;;;;;;;;;5089655;28;20260;-60
2022/06/06 07:35:40;;;;;;;3.50;2.95;;;;;;;;;;5074809;28;20309;-60
2022/06/06 07:38:16;;;;;;;3.30;3.17;;;;;;;;;;5088487;28;20207;-59
2022/06/06 07:40:48;;;;;;;3.38;3.17;;;;;;;;;;5089644;28;20210;-60
2022/06/06 07:43:30;;;;;;;3.10;3.00;;;;;;;;;;5089387;28;20233;-61
2022/06/06 07:46:03;;;;;;;3.25;3.05;;;;;;;;;;5072030;28;20222;-60
2022/06/06 07:48:36;;;;;;;3.03;2.92;;;;;;;;;;5089154;28;20225;-59
2022/06/06 07:51:07;;;;;;;3.13;3.03;;;;;;;;;;5087719;28;20214;-62
2022/06/06 07:53:41;;;;;;;3.70;3.50;;;;;;;;;;5088981;28;20267;-59
2022/06/06 07:56:12;;;;;;;3.05;2.85;;;;;;;;;;5089519;28;20293;-59
2022/06/06 07:58:43;;;;;;;2.88;2.67;;;;;;;;;;5086361;28;20221;-59
2022/06/06 08:01:11;;;;;;;3.03;2.83;;;;;;;;;;5088075;28;20213;-59
2022/06/06 08:03:45;;;;;;;2.70;2.60;;;;;;;;;;5079429;28;20552;-59
2022/06/06 08:06:20;;;;;;;3.13;2.92;;;;;;;;;;5072336;28;20234;-59
2022/06/06 08:09:04;;;;;;;3.58;3.13;;;;;;;;;;5088442;28;20266;-59
2022/06/06 08:11:37;;;;;;;3.33;2.53;;;;;;;;;;5089927;28;20586;-60
2022/06/06 08:14:14;;;;;;;2.90;2.80;;;;;;;;;;5089334;28;20206;-59
2022/06/06 08:16:45;;;;;;;2.90;2.70;;;;;;;;;;5089988;28;20206;-59
2022/06/06 08:19:19;;;;;;;3.15;3.03;;;;;;;;;;5089205;28;20848;-59
2022/06/06 08:21:47;;;;;;;2.83;2.70;;;;;;;;;;5090197;28;20206;-59
2022/06/06 08:24:20;;;;;;;4.50;2.72;;;;;;;;;;5089548;28;20207;-59
2022/06/06 08:26:49;;;;;;;3.60;3.25;;;;;;;;;;5089223;28;20616;-59
2022/06/06 08:29:17;;;;;;;4.35;2.83;;;;;;;;;;5089866;28;20305;-59
2022/06/06 08:31:44;;;;;;;3.55;3.20;;;;;;;;;;5089659;28;20210;-59
2022/06/06 08:34:11;;;;;;;2.97;2.88;;;;;;;;;;5089440;28;20660;-59
2022/06/06 08:36:52;;;;;;;3.08;2.97;;;;;;;;;;5089605;28;20268;-59
2022/06/06 08:39:27;;;;;;;3.13;2.95;;;;;;;;;;5089491;28;20202;-58
2022/06/06 08:42:12;;;;;;;3.20;2.78;;;;;;;;;;5089606;28;20233;-58
2022/06/06 08:44:51;;;;;;;3.20;2.92;;;;;;;;;;5087359;28;20213;-58
2022/06/06 08:47:23;;;;;;;2.70;2.60;;;;;;;;;;5089314;28;20253;-59
2022/06/06 08:53:03;;;;;;;2.45;2.35;;;;;;;;;;5089192;28;20200;-60
2022/06/06 08:55:40;;;;;;;2.42;2.30;;;;;;;;;;5078992;28;20205;-60
2022/06/06 08:58:20;;;;;;;2.75;2.65;;;;;;;;;;5089028;28;20214;-60
2022/06/06 09:00:50;;;;;;;2.83;2.72;;;;;;;;;;5088580;28;20202;-60
2022/06/06 09:03:39;;;;;;;2.28;2.17;;;;;;;;;;5087305;28;20226;-61
2022/06/06 09:06:27;;;;;;;2.33;2.15;;;;;;;;;;5086437;28;20230;-58
2022/06/06 09:09:11;;;;;;;1.88;1.75;;;;;;;;;;5084404;28;20233;-58
2022/06/06 09:11:50;;;;;;;1.40;1.40;;;;;;;;;;5087202;28;20202;-58
2022/06/06 09:14:35;;;;;;;1.30;1.20;;;;;;;;;;5084790;28;20650;-57
2022/06/06 09:17:32;;;;;;;1.00;1.00;;;;;;;;;;5085628;28;20194;-62
2022/06/06 09:20:11;;;;;;;1.00;1.00;;;;;;;;;;5084922;28;20209;-58
2022/06/06 09:22:49;;;;;;;1.15;1.15;;;;;;;;;;5084453;28;20198;-58
2022/06/06 09:25:29;;;;;;;0.90;0.90;;;;;;;;;;5086239;28;20240;-58
2022/06/06 09:28:23;;;;;;;0.90;0.90;;;;;;;;;;5082932;28;20198;-58
2022/06/06 09:31:09;;;;;;;1.25;1.25;;;;;;;;;;5086658;28;20229;-57
2022/06/06 09:33:51;;;;;;;0.90;0.90;;;;;;;;;;5084864;28;20206;-58
2022/06/06 09:36:24;;;;;;;1.00;0.93;;;;;;;;;;5070657;28;20218;-58
2022/06/06 09:38:58;;;;;;;0.90;0.90;;;;;;;;;;5086389;28;20202;-59
2022/06/06 09:41:29;;;;;;;1.02;1.00;;;;;;;;;;5084797;28;20213;-60
2022/06/06 09:43:58;;;;;;;1.05;1.05;;;;;;;;;;5082382;28;20779;-60
2022/06/06 09:46:42;;;;;;;1.10;1.10;;;;;;;;;;5086458;28;20222;-60
2022/06/06 09:49:28;;;;;;;0.98;0.98;;;;;;;;;;5084402;28;20283;-59
2022/06/06 09:52:13;;;;;;;1.00;1.00;;;;;;;;;;5080985;28;20206;-59
2022/06/06 10:01:37;;;;;;;1.02;1.02;;;;;;;;;;4982714;28;20342;-60
2022/06/06 10:04:19;;;;;;;1.20;1.20;;;;;;;;;;5034794;28;20215;-60
2022/06/06 10:07:17;;;;;;;0.82;0.82;;;;;;;;;;5068497;28;20686;-59
2022/06/06 10:09:55;;;;;;;0.98;0.98;;;;;;;;;;5085493;28;20198;-59
2022/06/06 10:12:28;;;;;;;2.25;1.05;;;;;;;;;;5084176;28;20293;-59
2022/06/06 10:15:03;;;;;;;1.10;1.10;;;;;;;;;;5085294;28;20206;-60
2022/06/06 10:17:36;;;;;;;0.80;0.80;;;;;;;;;;5086947;28;20197;-59
2022/06/06 10:20:18;;;;;;;1.00;1.00;;;;;;;;;;5086208;28;20264;-61
2022/06/06 10:23:06;;;;;;;1.20;1.10;;;;;;;;;;5085442;28;20545;-60
2022/06/06 10:25:41;;;;;;;1.00;1.00;;;;;;;;;;5084767;28;20293;-59
2022/06/06 10:28:17;;;;;;;0.90;0.90;;;;;;;;;;5084835;28;20198;-60
2022/06/06 10:30:51;;;;;;;0.90;0.90;;;;;;;;;;5086603;28;20217;-60
2022/06/06 10:33:35;;;;;;;0.95;0.95;;;;;;;;;;5084809;28;20233;-60
2022/06/06 10:36:05;;;;;;;1.00;1.00;;;;;;;;;;5085392;28;20230;-60
2022/06/06 10:38:46;;;;;;;1.08;1.08;;;;;;;;;;5087119;28;20237;-60
2022/06/06 10:41:20;;;;;;;1.23;0.98;;;;;;;;;;5083580;28;20289;-59
2022/06/06 10:43:58;;;;;;;0.70;0.70;;;;;;;;;;5086119;28;20377;-59
2022/06/06 10:46:26;;;;;;;1.00;1.00;;;;;;;;;;5084490;28;20264;-58
2022/06/06 10:48:59;;;;;;;1.10;1.10;;;;;;;;;;5086238;28;20294;-59
2022/06/06 10:51:50;;;;;;;1.08;1.08;;;;;;;;;;5088555;28;20199;-58
2022/06/06 10:54:35;;;;;;;2.58;0.90;;;;;;;;;;5088239;28;20286;-58
2022/06/06 10:57:13;;;;;;;1.10;1.00;;;;;;;;;;5088841;28;20574;-59
2022/06/06 10:59:59;;;;;;;1.30;1.25;;;;;;;;;;5088144;28;20198;-58
2022/06/06 11:02:40;;;;;;;1.10;1.10;;;;;;;;;;5089215;28;20660;-60
2022/06/06 11:05:38;;;;;;;1.05;1.05;;;;;;;;;;5088327;28;20206;-60
2022/06/06 11:08:19;;;;;;;0.90;0.90;;;;;;;;;;5088993;28;20727;-62
2022/06/06 11:11:08;;;;;;;0.80;0.80;;;;;;;;;;5089049;28;20209;-60
2022/06/06 11:13:42;;;;;;;0.90;0.90;;;;;;;;;;5087220;28;20297;-61
2022/06/06 11:16:24;;;;;;;0.90;0.90;;;;;;;;;;5088840;28;20313;-60
2022/06/06 11:19:06;;;;;;;0.85;0.85;;;;;;;;;;5088560;28;20256;-60
2022/06/06 11:21:54;;;;;;;0.88;0.88;;;;;;;;;;5086189;28;20209;-60
2022/06/06 11:24:25;;;;;;;2.60;0.80;;;;;;;;;;5088170;28;20210;-60
2022/06/06 11:27:10;;;;;;;0.77;0.73;;;;;;;;;;5087940;28;20225;-61
2022/06/06 11:29:56;;;;;;;0.70;0.70;;;;;;;;;;5087927;28;20880;-61
2022/06/06 11:32:44;;;;;;;1.55;0.70;;;;;;;;;;5086868;28;20203;-60
2022/06/06 11:35:24;;;;;;;1.00;0.85;;;;;;;;;;5085178;28;20219;-59
2022/06/06 11:38:03;;;;;;;1.10;1.10;;;;;;;;;;5086764;28;20198;-59
2022/06/06 11:40:48;;;;;;;1.10;1.10;;;;;;;;;;5083978;28;20202;-59
2022/06/06 11:43:23;;;;;;;2.78;1.40;;;;;;;;;;5084831;28;20264;-59
2022/06/06 11:46:08;;;;;;;1.45;1.00;;;;;;;;;;5088027;28;20664;-60
2022/06/06 11:48:47;;;;;;;0.90;0.90;;;;;;;;;;5086136;28;20663;-60
2022/06/06 11:51:26;;;;;;;0.85;0.85;;;;;;;;;;5089132;28;20218;-59
2022/06/06 11:54:11;;;;;;;1.15;1.15;;;;;;;;;;5075546;28;20207;-59
2022/06/06 11:56:53;;;;;;;1.00;1.00;;;;;;;;;;5083608;28;20210;-59
2022/06/06 11:59:36;;;;;;;0.85;0.85;;;;;;;;;;5083110;28;20210;-58
2022/06/06 12:02:26;;;;;;;3.50;1.00;;;;;;;;;;5084292;28;20240;-59
2022/06/06 12:05:23;;;;;;;0.93;0.93;;;;;;;;;;5082601;28;20902;-59
2022/06/06 12:08:06;;;;;;;0.90;0.90;;;;;;;;;;5086026;28;20226;-58
2022/06/06 12:10:37;;;;;;;0.88;0.88;;;;;;;;;;5086214;28;20210;-60
2022/06/06 12:13:13;;;;;;;1.10;1.00;;;;;;;;;;5086356;28;20225;-60
2022/06/06 12:15:50;;;;;;;1.77;0.80;;;;;;;;;;5086020;28;20209;-58
2022/06/06 12:18:27;;;;;;;0.70;0.70;;;;;;;;;;5085998;28;20650;-58
2022/06/06 12:21:04;;;;;;;0.75;0.75;;;;;;;;;;5085523;28;20371;-59
2022/06/06 12:23:37;;;;;;;1.00;1.00;;;;;;;;;;5086312;28;20752;-59
2022/06/06 12:26:14;;;;;;;1.02;1.00;;;;;;;;;;5085355;28;20350;-59
2022/06/06 12:29:14;;;;;;;1.10;1.10;;;;;;;;;;5085435;28;20241;-59
2022/06/06 12:31:44;;;;;;;1.33;1.20;;;;;;;;;;5085530;28;20234;-59
2022/06/06 12:34:16;;;;;;;0.98;0.98;;;;;;;;;;5085497;28;20206;-58
2022/06/06 12:36:46;;;;;;;0.98;0.95;;;;;;;;;;5080594;28;20699;-60
2022/06/06 12:39:17;;;;;;;0.98;0.90;;;;;;;;;;5064886;28;20603;-59
2022/06/06 12:41:51;;;;;;;0.90;0.90;;;;;;;;;;5074147;28;21090;-59
2022/06/06 12:44:30;;;;;;;1.42;1.33;;;;;;;;;;5084751;28;20201;-59
2022/06/06 12:47:09;;;;;;;1.17;1.05;;;;;;;;;;5084897;28;20234;-59
2022/06/06 12:49:51;;;;;;;1.00;1.00;;;;;;;;;;5085591;28;20208;-59
2022/06/06 12:52:43;;;;;;;0.90;0.90;;;;;;;;;;5072128;28;20210;-59
2022/06/06 12:55:31;;;;;;;1.08;1.08;;;;;;;;;;5084634;28;20210;-59
2022/06/06 12:58:07;;;;;;;1.75;1.05;;;;;;;;;;5078604;28;20229;-59
2022/06/06 13:03:23;;;;;;;1.00;1.00;;;;;;;;;;5085077;28;20210;-59
2022/06/06 13:05:56;;;;;;;0.93;0.90;;;;;;;;;;5084231;28;20202;-59
2022/06/06 13:08:41;;;;;;;1.27;0.80;;;;;;;;;;5083217;28;20750;-59
2022/06/06 13:11:35;;;;;;;0.90;0.90;;;;;;;;;;5083465;28;20285;-58
2022/06/06 13:14:13;;;;;;;0.82;0.82;;;;;;;;;;5037718;28;20218;-59
2022/06/06 13:16:49;;;;;;;1.48;1.00;;;;;;;;;;5080017;28;20209;-59
2022/06/06 13:19:29;;;;;;;0.98;0.98;;;;;;;;;;5084210;28;20213;-59
2022/06/06 13:22:03;;;;;;;0.70;0.70;;;;;;;;;;5084296;28;20501;-59
2022/06/06 13:24:48;;;;;;;0.82;0.82;;;;;;;;;;5084246;28;20274;-59
2022/06/06 13:27:22;;;;;;;1.00;1.00;;;;;;;;;;5083374;28;20927;-59
2022/06/06 13:29:49;;;;;;;0.93;0.88;;;;;;;;;;5083941;28;20933;-59
2022/06/06 13:32:25;;;;;;;0.80;0.80;;;;;;;;;;5083629;28;20222;-59
2022/06/06 13:34:57;;;;;;;0.90;0.90;;;;;;;;;;5083963;28;20237;-59
2022/06/06 13:37:31;;;;;;;0.73;0.73;;;;;;;;;;5083084;28;20228;-59
2022/06/06 13:40:03;;;;;;;0.80;0.80;;;;;;;;;;5084001;28;20205;-59
2022/06/06 13:42:40;;;;;;;0.70;0.70;;;;;;;;;;5083487;28;20241;-59
2022/06/06 13:45:13;;;;;;;0.80;0.80;;;;;;;;;;5084007;28;20205;-60
2022/06/06 13:47:59;;;;;;;1.10;0.70;;;;;;;;;;5084212;28;20226;-58
2022/06/06 13:50:29;;;;;;;1.17;0.85;;;;;;;;;;5084123;28;20217;-58
2022/06/06 13:53:04;;;;;;;0.90;0.90;;;;;;;;;;5083898;28;20667;-59
2022/06/06 13:55:32;;;;;;;0.60;0.60;;;;;;;;;;5084208;28;20215;-59
2022/06/06 13:58:08;;;;;;;1.73;0.90;;;;;;;;;;5084369;28;20309;-60
2022/06/06 14:00:40;;;;;;;0.68;0.68;;;;;;;;;;5084550;28;20709;-59
2022/06/06 14:03:12;;;;;;;0.60;0.60;;;;;;;;;;5083757;28;20220;-59
2022/06/06 14:05:47;;;;;;;0.55;0.55;;;;;;;;;;5082979;28;20202;-59
2022/06/06 14:08:16;;;;;;;0.70;0.70;;;;;;;;;;5083504;28;20316;-58
2022/06/06 14:11:01;;;;;;;0.70;0.70;;;;;;;;;;5081284;28;20318;-58
2022/06/06 14:13:44;;;;;;;0.50;0.50;;;;;;;;;;5076898;28;20218;-57
2022/06/06 14:16:23;;;;;;;0.47;0.47;;;;;;;;;;5079893;28;20206;-58
2022/06/06 14:18:52;;;;;;;0.50;0.50;;;;;;;;;;5083881;28;20214;-58
2022/06/06 14:21:24;;;;;;;1.95;0.60;;;;;;;;;;5078782;28;20295;-59
2022/06/06 14:23:52;;;;;;;0.57;0.57;;;;;;;;;;5065579;28;20750;-56
2022/06/06 14:26:22;;;;;;;0.70;0.50;;;;;;;;;;5069646;28;20770;-57
2022/06/06 14:29:03;;;;;;;0.50;0.50;;;;;;;;;;5080551;28;20324;-59
2022/06/06 14:31:36;;;;;;;1.55;0.80;;;;;;;;;;5087929;28;20209;-58
2022/06/06 14:34:06;;;;;;;0.50;0.50;;;;;;;;;;5086907;28;20206;-58
2022/06/06 14:36:33;;;;;;;0.50;0.50;;;;;;;;;;5084161;28;20337;-58
2022/06/06 14:39:01;;;;;;;0.60;0.60;;;;;;;;;;5067794;28;20207;-58
2022/06/06 14:41:30;;;;;;;0.55;0.40;;;;;;;;;;5067339;28;20218;-58
2022/06/06 14:43:59;;;;;;;0.40;0.40;;;;;;;;;;5071877;28;20226;-58
2022/06/06 14:46:26;;;;;;;0.40;0.40;;;;;;;;;;5077100;28;20211;-58
2022/06/06 14:48:56;;;;;;;0.40;0.40;;;;;;;;;;5074578;28;20253;-58
2022/06/06 14:51:36;;;;;;;0.47;0.47;;;;;;;;;;5086737;28;20218;-58
2022/06/06 14:54:08;;;;;;;1.17;0.70;;;;;;;;;;5086036;28;20207;-58
2022/06/06 14:56:37;;;;;;;3.92;0.70;;;;;;;;;;5082867;28;20671;-59
2022/06/06 14:59:07;;;;;;;0.70;0.70;;;;;;;;;;5069592;28;20219;-59
2022/06/06 15:01:39;;;;;;;0.90;0.75;;;;;;;;;;5078754;28;20744;-59
2022/06/06 15:04:23;;;;;;;0.50;0.50;;;;;;;;;;5086652;28;20220;-59
2022/06/06 15:06:59;;;;;;;0.90;0.90;;;;;;;;;;5077730;28;20210;-61
2022/06/06 15:09:37;;;;;;;3.05;0.70;;;;;;;;;;5066745;28;20225;-59
2022/06/06 15:12:07;;;;;;;0.68;0.68;;;;;;;;;;5067361;28;20207;-58
2022/06/06 15:14:35;;;;;;;1.45;0.93;;;;;;;;;;5086889;28;20213;-59
2022/06/06 15:17:04;;;;;;;0.60;0.60;;;;;;;;;;5085155;28;20619;-60
2022/06/06 15:19:38;;;;;;;0.98;0.90;;;;;;;;;;5083817;28;20202;-60
2022/06/06 15:22:14;;;;;;;0.60;0.60;;;;;;;;;;5084868;28;20245;-60
2022/06/06 15:24:43;;;;;;;0.60;0.60;;;;;;;;;;5065692;28;20199;-59
2022/06/06 15:27:20;;;;;;;0.70;0.70;;;;;;;;;;5065974;28;20242;-59
2022/06/06 15:29:53;;;;;;;1.00;0.60;;;;;;;;;;5080594;28;20237;-59
2022/06/06 15:32:26;;;;;;;0.60;0.60;;;;;;;;;;5078538;28;20214;-59
2022/06/06 15:35:00;;;;;;;0.60;0.60;;;;;;;;;;5084665;28;20563;-59
2022/06/06 15:37:39;;;;;;;0.73;0.60;;;;;;;;;;5084110;28;20236;-58
2022/06/06 15:40:14;;;;;;;1.08;0.80;;;;;;;;;;5084484;28;20212;-59
2022/06/06 15:42:44;;;;;;;0.70;0.70;;;;;;;;;;5082512;28;20230;-60
2022/06/06 15:45:26;;;;;;;1.13;1.13;;;;;;;;;;5082188;28;20202;-59
2022/06/06 15:47:57;;;;;;;0.88;0.88;;;;;;;;;;5082029;28;20226;-59
2022/06/06 15:50:33;;;;;;;3.28;1.20;;;;;;;;;;5082597;28;20199;-59
2022/06/06 15:53:21;;;;;;;0.57;0.57;;;;;;;;;;5082868;28;20209;-59
2022/06/06 15:55:50;;;;;;;1.02;0.65;;;;;;;;;;5085307;28;20199;-59